createdAt,value
2019-01-25T00:00:26.592Z,65.00
2019-01-25T00:01:31.132Z,60.13
2019-01-25T00:02:35.645Z,60.23
2019-01-25T00:03:41.678Z,60.43
2019-01-25T00:04:46.121Z,59.93
2019-01-25T00:05:50.516Z,67.13
2019-01-25T00:06:55.098Z,70.33
2019-01-25T00:07:59.462Z,61.20
2019-01-25T00:09:05.538Z,66.73
2019-01-25T00:10:10.377Z,57.93
2019-01-25T00:11:14.843Z,63.70
2019-01-25T00:12:19.269Z,66.33
2019-01-25T00:13:23.812Z,58.93
2019-01-25T00:14:28.354Z,56.77
2019-01-25T00:15:32.858Z,67.77
2019-01-25T00:16:37.294Z,65.80
2019-01-25T00:17:41.691Z,63.37
2019-01-25T00:18:47.677Z,66.30
2019-01-25T00:19:52.030Z,64.53
2019-01-25T00:20:56.678Z,68.43
2019-01-25T00:22:01.228Z,62.33
2019-01-25T00:23:05.611Z,59.83
2019-01-25T00:24:10.054Z,57.90
2019-01-25T00:25:14.468Z,62.93
2019-01-25T00:26:18.827Z,65.57
2019-01-25T00:27:23.401Z,62.37
2019-01-25T00:28:27.954Z,60.93
2019-01-25T00:29:32.476Z,69.77
2019-01-25T00:30:36.821Z,61.17
2019-01-25T00:31:41.432Z,63.00
2019-01-25T00:32:46.073Z,58.40
2019-01-25T00:33:50.493Z,59.20
2019-01-25T00:34:55.060Z,58.83
2019-01-25T00:35:59.542Z,65.00
2019-01-25T00:37:04.010Z,65.80
2019-01-25T00:38:08.596Z,56.30
2019-01-25T00:39:13.038Z,64.30
2019-01-25T00:40:18.126Z,60.47
2019-01-25T00:41:23.069Z,58.03
2019-01-25T00:42:27.654Z,67.80
2019-01-25T00:43:32.098Z,63.13
2019-01-25T00:44:36.485Z,63.20
2019-01-25T00:45:40.961Z,64.77
2019-01-25T00:46:45.409Z,68.33
2019-01-25T00:47:49.841Z,71.27
2019-01-25T00:48:54.437Z,66.07
2019-01-25T00:49:58.832Z,63.63
2019-01-25T00:51:03.222Z,58.90
2019-01-25T00:52:07.619Z,58.03
2019-01-25T00:53:12.114Z,57.07
2019-01-25T00:54:16.552Z,66.37
2019-01-25T00:55:21.324Z,65.87
2019-01-25T00:56:25.767Z,60.47
2019-01-25T00:57:30.385Z,61.33
2019-01-25T00:58:34.823Z,56.27
2019-01-25T00:59:39.472Z,61.13
2019-01-25T01:00:43.880Z,62.03
2019-01-25T01:01:48.336Z,61.20
2019-01-25T01:02:53.091Z,55.77
2019-01-25T01:03:57.505Z,60.50
2019-01-25T01:05:02.149Z,58.20
2019-01-25T01:06:06.656Z,63.57
2019-01-25T01:07:11.117Z,65.33
2019-01-25T01:08:15.572Z,57.60
2019-01-25T01:09:20.068Z,57.40
2019-01-25T01:10:24.621Z,61.67
2019-01-25T01:11:29.129Z,62.73
2019-01-25T01:12:33.571Z,62.77
2019-01-25T01:13:38.074Z,57.67
2019-01-25T01:14:42.422Z,66.80
2019-01-25T01:15:46.861Z,64.57
2019-01-25T01:16:51.356Z,55.77
2019-01-25T01:17:55.948Z,60.77
2019-01-25T01:19:00.358Z,58.43
2019-01-25T01:20:06.374Z,64.23
2019-01-25T01:21:10.940Z,65.93
2019-01-25T01:22:15.374Z,59.87
2019-01-25T01:23:20.018Z,65.77
2019-01-25T01:24:24.512Z,60.43
2019-01-25T01:25:29.272Z,66.77
2019-01-25T01:26:33.795Z,72.00
2019-01-25T01:27:38.456Z,57.23
2019-01-25T01:28:42.827Z,68.60
2019-01-25T01:29:47.184Z,60.37
2019-01-25T01:30:51.955Z,58.93
2019-01-25T01:31:56.371Z,69.97
2019-01-25T01:33:00.866Z,63.67
2019-01-25T01:34:05.428Z,70.90
2019-01-25T01:35:09.910Z,54.97
2019-01-25T01:36:14.262Z,63.80
2019-01-25T01:37:18.708Z,57.33
2019-01-25T01:38:23.110Z,60.47
2019-01-25T01:39:27.683Z,65.33
2019-01-25T01:40:32.198Z,65.30
2019-01-25T01:41:36.630Z,62.80
2019-01-25T01:42:41.076Z,62.00
2019-01-25T01:43:45.624Z,64.87
2019-01-25T01:44:50.076Z,61.50
2019-01-25T01:45:54.404Z,59.90
2019-01-25T01:46:58.772Z,61.03
2019-01-25T01:48:03.181Z,56.20
2019-01-25T01:49:07.651Z,69.47
2019-01-25T01:50:14.004Z,63.87
2019-01-25T01:51:18.639Z,67.27
2019-01-25T01:52:23.098Z,62.80
2019-01-25T01:53:27.593Z,59.77
2019-01-25T01:54:31.959Z,59.87
2019-01-25T01:55:36.332Z,60.60
2019-01-25T01:56:40.671Z,65.33
2019-01-25T01:57:45.142Z,64.20
2019-01-25T01:58:49.574Z,64.37
2019-01-25T01:59:54.007Z,61.87
2019-01-25T02:00:58.408Z,63.40
2019-01-25T02:02:02.783Z,63.23
2019-01-25T02:03:07.245Z,62.80
2019-01-25T02:04:11.868Z,61.57
2019-01-25T02:05:16.798Z,65.40
2019-01-25T02:06:21.243Z,65.07
2019-01-25T02:07:25.992Z,58.10
2019-01-25T02:08:30.545Z,54.57
2019-01-25T02:09:35.140Z,64.43
2019-01-25T02:10:39.513Z,59.63
2019-01-25T02:11:44.084Z,57.17
2019-01-25T02:12:48.721Z,57.20
2019-01-25T02:13:53.225Z,64.33
2019-01-25T02:14:57.635Z,59.73
2019-01-25T02:16:01.983Z,66.77
2019-01-25T02:17:06.478Z,66.53
2019-01-25T02:18:10.893Z,65.27
2019-01-25T02:19:15.397Z,65.90
2019-01-25T02:20:24.958Z,69.67
2019-01-25T02:21:29.598Z,66.77
2019-01-25T02:22:34.197Z,59.07
2019-01-25T02:23:38.737Z,70.27
2019-01-25T02:24:43.114Z,61.90
2019-01-25T02:25:47.470Z,62.73
2019-01-25T02:26:52.078Z,61.93
2019-01-25T02:27:56.649Z,60.37
2019-01-25T02:29:01.005Z,62.83
2019-01-25T02:30:06.956Z,63.07
2019-01-25T02:31:11.405Z,57.93
2019-01-25T02:32:15.840Z,61.47
2019-01-25T02:33:20.518Z,64.57
2019-01-25T02:34:24.942Z,67.50
2019-01-25T02:35:29.505Z,64.57
2019-01-25T02:36:33.897Z,61.17
2019-01-25T02:37:38.348Z,63.23
2019-01-25T02:38:42.784Z,65.77
2019-01-25T02:39:47.525Z,61.57
2019-01-25T02:40:51.941Z,65.63
2019-01-25T02:41:56.341Z,65.43
2019-01-25T02:43:00.684Z,63.20
2019-01-25T02:44:05.476Z,63.40
2019-01-25T02:45:11.379Z,70.10
2019-01-25T02:46:15.837Z,69.30
2019-01-25T02:47:20.384Z,77.37
2019-01-25T02:48:24.863Z,66.03
2019-01-25T02:49:29.350Z,64.90
2019-01-25T02:50:34.022Z,62.90
2019-01-25T02:51:38.432Z,65.37
2019-01-25T02:52:42.792Z,70.73
2019-01-25T02:53:47.237Z,67.73
2019-01-25T02:54:51.831Z,69.60
2019-01-25T02:55:56.398Z,65.50
2019-01-25T02:57:00.761Z,77.50
2019-01-25T02:58:05.811Z,71.13
2019-01-25T02:59:10.280Z,75.17
2019-01-25T03:00:25.396Z,71.80
2019-01-25T03:01:29.943Z,75.13
2019-01-25T03:02:34.471Z,72.67
2019-01-25T03:03:39.131Z,71.17
2019-01-25T03:04:43.503Z,70.63
2019-01-25T03:05:47.908Z,81.83
2019-01-25T03:06:52.293Z,72.83
2019-01-25T03:07:56.800Z,67.17
2019-01-25T03:09:01.274Z,74.70
2019-01-25T03:10:07.956Z,71.47
2019-01-25T03:11:12.386Z,76.37
2019-01-25T03:12:16.885Z,74.23
2019-01-25T03:13:21.219Z,72.57
2019-01-25T03:14:25.565Z,75.47
2019-01-25T03:15:29.955Z,75.20
2019-01-25T03:16:34.465Z,67.90
2019-01-25T03:17:39.064Z,77.07
2019-01-25T03:18:43.459Z,68.43
2019-01-25T03:19:47.918Z,74.50
2019-01-25T03:20:52.503Z,73.37
2019-01-25T03:21:56.910Z,68.23
2019-01-25T03:23:01.306Z,67.33
2019-01-25T03:24:05.913Z,72.53
2019-01-25T03:25:12.656Z,77.73
2019-01-25T03:26:17.183Z,75.83
2019-01-25T03:27:21.584Z,74.03
2019-01-25T03:28:27.249Z,71.07
2019-01-25T03:29:31.922Z,78.57
2019-01-25T03:30:36.329Z,78.00
2019-01-25T03:31:40.762Z,72.97
2019-01-25T03:32:45.145Z,76.23
2019-01-25T03:33:49.579Z,82.57
2019-01-25T03:34:54.307Z,76.97
2019-01-25T03:35:58.680Z,78.30
2019-01-25T03:37:03.265Z,75.30
2019-01-25T03:38:07.582Z,81.57
2019-01-25T03:39:12.044Z,83.60
2019-01-25T03:40:18.853Z,76.53
2019-01-25T03:41:23.259Z,78.03
2019-01-25T03:42:27.609Z,81.10
2019-01-25T03:43:32.142Z,81.27
2019-01-25T03:44:36.562Z,78.13
2019-01-25T03:45:40.980Z,73.90
2019-01-25T03:46:45.514Z,75.30
2019-01-25T03:47:50.007Z,80.00
2019-01-25T03:48:54.882Z,75.97
2019-01-25T03:49:59.270Z,75.13
2019-01-25T03:51:03.757Z,78.43
2019-01-25T03:52:08.113Z,71.10
2019-01-25T03:53:12.576Z,70.60
2019-01-25T03:54:17.059Z,74.67
2019-01-25T03:55:21.592Z,71.43
2019-01-25T03:56:26.005Z,69.57
2019-01-25T03:57:30.609Z,68.20
2019-01-25T03:58:35.139Z,67.53
2019-01-25T03:59:39.576Z,66.10
2019-01-25T04:00:44.105Z,69.73
2019-01-25T04:01:48.423Z,64.33
2019-01-25T04:02:53.108Z,56.97
2019-01-25T04:03:57.465Z,60.97
2019-01-25T04:05:01.889Z,49.33
2019-01-25T04:06:06.300Z,51.80
2019-01-25T04:07:10.776Z,50.80
2019-01-25T04:08:15.105Z,50.60
2019-01-25T04:09:19.745Z,45.30
2019-01-25T04:10:25.658Z,44.97
2019-01-25T04:11:30.103Z,47.90
2019-01-25T04:12:34.717Z,45.10
2019-01-25T04:13:39.440Z,42.40
2019-01-25T04:14:44.133Z,44.03
2019-01-25T04:15:48.689Z,48.77
2019-01-25T04:16:53.223Z,42.00
2019-01-25T04:17:57.583Z,43.10
2019-01-25T04:19:02.108Z,51.37
2019-01-25T04:20:08.238Z,40.97
2019-01-25T04:21:12.646Z,41.37
2019-01-25T04:22:17.203Z,45.70
2019-01-25T04:23:21.579Z,47.73
2019-01-25T04:24:26.027Z,42.13
2019-01-25T04:25:30.404Z,43.00
2019-01-25T04:26:34.750Z,43.07
2019-01-25T04:27:39.143Z,44.87
2019-01-25T04:28:43.734Z,41.37
2019-01-25T04:29:48.209Z,40.80
2019-01-25T04:30:52.603Z,48.30
2019-01-25T04:31:57.002Z,45.27
2019-01-25T04:33:01.675Z,46.17
2019-01-25T04:34:06.117Z,41.40
2019-01-25T04:35:10.833Z,42.73
2019-01-25T04:36:15.158Z,44.07
2019-01-25T04:37:19.548Z,41.63
2019-01-25T04:38:24.197Z,46.90
2019-01-25T04:39:28.760Z,45.90
2019-01-25T04:40:33.123Z,41.00
2019-01-25T04:41:37.528Z,45.30
2019-01-25T04:42:41.868Z,45.67
2019-01-25T04:43:46.388Z,40.50
2019-01-25T04:44:50.733Z,42.77
2019-01-25T04:45:57.907Z,46.27
2019-01-25T04:47:02.233Z,47.23
2019-01-25T04:48:10.122Z,42.03
2019-01-25T04:49:14.495Z,46.20
2019-01-25T04:50:23.137Z,44.83
2019-01-25T04:51:27.519Z,44.63
2019-01-25T04:52:31.960Z,46.03
2019-01-25T04:53:37.341Z,45.23
2019-01-25T04:54:41.809Z,46.87
2019-01-25T04:55:46.499Z,45.47
2019-01-25T04:56:50.916Z,42.07
2019-01-25T04:57:57.109Z,48.57
2019-01-25T04:59:01.580Z,42.33
2019-01-25T05:00:07.643Z,39.00
2019-01-25T05:01:12.109Z,42.50
2019-01-25T05:02:16.540Z,47.50
2019-01-25T05:03:21.114Z,45.07
2019-01-25T05:04:25.486Z,43.93
2019-01-25T05:05:30.147Z,44.17
2019-01-25T05:06:37.766Z,54.50
2019-01-25T05:07:42.119Z,58.70
2019-01-25T05:08:46.594Z,55.97
2019-01-25T05:09:51.192Z,48.13
2019-01-25T05:10:58.792Z,53.90
2019-01-25T05:12:03.461Z,49.07
2019-01-25T05:13:08.005Z,50.83
2019-01-25T05:14:12.554Z,58.17
2019-01-25T05:15:17.086Z,60.63
2019-01-25T05:16:21.469Z,58.83
2019-01-25T05:17:25.906Z,61.07
2019-01-25T05:18:30.302Z,60.73
2019-01-25T05:19:41.331Z,58.47
2019-01-25T05:20:47.034Z,61.97
2019-01-25T05:21:51.577Z,62.67
2019-01-25T05:22:57.807Z,63.77
2019-01-25T05:24:09.440Z,59.60
2019-01-25T05:25:18.468Z,64.43
2019-01-25T05:26:22.870Z,59.23
2019-01-25T05:27:27.269Z,56.43
2019-01-25T05:28:31.762Z,64.70
2019-01-25T05:29:53.795Z,67.40
2019-01-25T05:31:05.201Z,72.40
2019-01-25T05:32:09.718Z,60.50
2019-01-25T05:33:14.268Z,65.23
2019-01-25T05:34:18.786Z,61.03
2019-01-25T05:35:23.181Z,65.00
2019-01-25T05:36:27.740Z,62.30
2019-01-25T05:37:32.756Z,59.87
2019-01-25T05:38:37.366Z,66.13
2019-01-25T05:39:41.881Z,66.43
2019-01-25T05:40:46.416Z,66.80
2019-01-25T05:41:53.592Z,72.60
2019-01-25T05:42:58.838Z,72.03
2019-01-25T05:44:03.248Z,72.60
2019-01-25T05:45:12.365Z,71.47
2019-01-25T05:46:16.750Z,79.07
2019-01-25T05:47:21.681Z,80.10
2019-01-25T05:48:30.259Z,85.67
2019-01-25T05:49:34.978Z,79.30
2019-01-25T05:50:39.415Z,87.27
2019-01-25T05:51:44.376Z,79.77
2019-01-25T05:52:48.853Z,71.23
2019-01-25T05:53:53.748Z,82.37
2019-01-25T05:54:58.222Z,83.83
2019-01-25T05:56:02.676Z,81.60
2019-01-25T05:57:07.104Z,73.87
2019-01-25T05:58:12.026Z,80.57
2019-01-25T05:59:22.985Z,87.23
2019-01-25T06:00:32.067Z,82.47
2019-01-25T06:01:42.023Z,82.70
2019-01-25T06:02:46.640Z,84.57
2019-01-25T06:03:51.106Z,81.53
2019-01-25T06:04:55.473Z,77.97
2019-01-25T06:06:01.771Z,78.43
2019-01-25T06:07:06.308Z,75.97
2019-01-25T06:08:31.132Z,80.87
2019-01-25T06:09:35.740Z,85.70
2019-01-25T06:10:40.267Z,81.53
2019-01-25T06:11:44.921Z,74.60
2019-01-25T06:12:54.145Z,75.37
2019-01-25T06:13:59.026Z,69.00
2019-01-25T06:15:03.448Z,71.00
2019-01-25T06:16:08.325Z,69.37
2019-01-25T06:17:12.844Z,73.77
2019-01-25T06:18:17.201Z,77.63
2019-01-25T06:19:21.717Z,68.60
2019-01-25T06:20:26.312Z,73.10
2019-01-25T06:21:30.695Z,66.70
2019-01-25T06:22:37.918Z,73.47
2019-01-25T06:23:42.667Z,74.37
2019-01-25T06:24:49.025Z,65.13
2019-01-25T06:25:54.314Z,66.63
2019-01-25T06:26:59.999Z,78.93
2019-01-25T06:28:06.720Z,69.37
2019-01-25T06:29:11.947Z,68.63
2019-01-25T06:30:18.227Z,65.60
2019-01-25T06:31:25.535Z,70.13
2019-01-25T06:32:30.654Z,60.53
2019-01-25T06:33:35.205Z,66.27
2019-01-25T06:34:39.556Z,65.50
2019-01-25T06:35:43.947Z,62.20
2019-01-25T06:36:48.851Z,59.33
2019-01-25T06:37:53.685Z,58.57
2019-01-25T06:38:59.509Z,56.73
2019-01-25T06:40:04.903Z,47.33
2019-01-25T06:41:09.775Z,51.07
2019-01-25T06:42:14.400Z,47.70
2019-01-25T06:43:18.852Z,49.73
2019-01-25T06:44:23.204Z,47.63
2019-01-25T06:45:27.732Z,49.37
2019-01-25T06:46:32.211Z,49.20
2019-01-25T06:47:36.925Z,47.13
2019-01-25T06:48:41.557Z,47.03
2019-01-25T06:49:46.349Z,43.90
2019-01-25T06:50:50.909Z,40.10
2019-01-25T06:51:55.629Z,39.43
2019-01-25T06:53:00.181Z,43.37
2019-01-25T06:54:04.654Z,42.77
2019-01-25T06:55:09.330Z,47.80
2019-01-25T06:56:14.096Z,47.17
2019-01-25T06:57:37.495Z,42.37
2019-01-25T06:59:16.112Z,41.83
2019-01-25T07:00:23.585Z,39.83
2019-01-25T07:01:49.884Z,42.77
2019-01-25T07:02:54.512Z,41.67
2019-01-25T07:03:59.233Z,43.23
2019-01-25T07:05:03.805Z,38.27
2019-01-25T07:06:08.303Z,39.77
2019-01-25T07:07:29.633Z,41.73
2019-01-25T07:08:34.090Z,41.27
2019-01-25T07:09:38.613Z,46.97
2019-01-25T07:10:43.084Z,41.53
2019-01-25T07:11:51.629Z,41.50
2019-01-25T07:12:53.550Z,36.07
2019-01-25T07:13:59.250Z,41.97
2019-01-25T07:15:04.681Z,37.57
2019-01-25T07:16:09.248Z,38.90
2019-01-25T07:17:13.828Z,41.93
2019-01-25T07:18:18.276Z,37.47
2019-01-25T07:19:22.722Z,44.13
2019-01-25T07:20:27.211Z,45.73
2019-01-25T07:21:31.639Z,48.03
2019-01-25T07:22:36.121Z,44.50
2019-01-25T07:23:42.553Z,42.00
2019-01-25T07:24:46.848Z,45.37
2019-01-25T07:25:51.248Z,44.63
2019-01-25T07:26:55.864Z,40.90
2019-01-25T07:28:00.396Z,48.00
2019-01-25T07:29:04.852Z,47.10
2019-01-25T07:30:10.623Z,45.43
2019-01-25T07:31:15.191Z,48.07
2019-01-25T07:32:19.633Z,45.87
2019-01-25T07:33:24.319Z,41.20
2019-01-25T07:34:28.769Z,42.80
2019-01-25T07:35:33.180Z,46.10
2019-01-25T07:36:37.670Z,42.77
2019-01-25T07:37:42.341Z,49.37
2019-01-25T07:38:47.178Z,40.03
2019-01-25T07:39:51.889Z,46.80
2019-01-25T07:40:56.477Z,41.03
2019-01-25T07:42:02.398Z,46.73
2019-01-25T07:43:07.063Z,44.30
2019-01-25T07:44:11.841Z,45.13
2019-01-25T07:45:16.379Z,44.70
2019-01-25T07:46:23.585Z,44.00
2019-01-25T07:47:28.076Z,46.07
2019-01-25T07:48:32.564Z,45.83
2019-01-25T07:49:37.066Z,47.73
2019-01-25T07:50:41.661Z,45.17
2019-01-25T07:51:46.388Z,44.63
2019-01-25T07:52:50.817Z,44.80
2019-01-25T07:53:55.334Z,48.07
2019-01-25T07:54:59.864Z,42.43
2019-01-25T07:56:04.316Z,51.97
2019-01-25T07:57:08.821Z,49.00
2019-01-25T07:58:13.337Z,45.63
2019-01-25T07:59:17.894Z,46.60
2019-01-25T08:00:22.445Z,42.97
2019-01-25T08:01:26.905Z,40.03
2019-01-25T08:02:31.325Z,46.30
2019-01-25T08:03:35.755Z,47.47
2019-01-25T08:04:40.207Z,43.50
2019-01-25T08:05:44.697Z,43.90
2019-01-25T08:06:49.322Z,44.10
2019-01-25T08:07:53.979Z,43.60
2019-01-25T08:08:58.432Z,44.10
2019-01-25T08:10:02.895Z,42.67
2019-01-25T08:11:07.267Z,42.47
2019-01-25T08:12:11.806Z,47.40
2019-01-25T08:13:16.413Z,44.50
2019-01-25T08:14:20.978Z,46.50
2019-01-25T08:15:25.965Z,37.80
2019-01-25T08:16:30.462Z,38.10
2019-01-25T08:17:34.949Z,45.93
2019-01-25T08:18:39.441Z,48.00
2019-01-25T08:19:43.838Z,42.40
2019-01-25T08:20:48.191Z,45.20
2019-01-25T08:21:53.035Z,40.80
2019-01-25T08:22:57.589Z,42.37
2019-01-25T08:24:01.997Z,47.50
2019-01-25T08:25:06.739Z,40.17
2019-01-25T08:26:11.309Z,51.50
2019-01-25T08:27:15.960Z,42.90
2019-01-25T08:28:20.428Z,44.93
2019-01-25T08:29:28.160Z,51.20
2019-01-25T08:30:31.033Z,43.43
2019-01-25T08:31:35.533Z,42.57
2019-01-25T08:32:40.096Z,38.77
2019-01-25T08:33:44.541Z,41.63
2019-01-25T08:34:49.060Z,42.07
2019-01-25T08:35:54.317Z,41.40
2019-01-25T08:36:58.830Z,44.47
2019-01-25T08:38:03.261Z,44.37
2019-01-25T08:39:10.075Z,38.93
2019-01-25T08:40:14.733Z,40.77
2019-01-25T08:41:19.204Z,40.17
2019-01-25T08:42:23.635Z,40.40
2019-01-25T08:43:28.196Z,47.30
2019-01-25T08:44:32.871Z,45.73
2019-01-25T08:45:37.568Z,36.23
2019-01-25T08:46:42.048Z,41.37
2019-01-25T08:47:46.608Z,42.60
2019-01-25T08:48:51.081Z,38.73
2019-01-25T08:49:58.007Z,41.23
2019-01-25T08:51:02.081Z,43.47
2019-01-25T08:52:06.686Z,45.40
2019-01-25T08:53:11.112Z,42.30
2019-01-25T08:54:15.577Z,42.00
2019-01-25T08:55:21.409Z,41.30
2019-01-25T08:56:25.986Z,45.07
2019-01-25T08:57:30.522Z,39.60
2019-01-25T08:58:35.942Z,42.50
2019-01-25T08:59:40.435Z,40.17
2019-01-25T09:00:44.869Z,41.20
2019-01-25T09:01:49.352Z,44.00
2019-01-25T09:02:54.008Z,44.10
2019-01-25T09:03:58.682Z,41.23
2019-01-25T09:05:03.275Z,41.30
2019-01-25T09:06:07.813Z,43.50
2019-01-25T09:07:12.392Z,41.97
2019-01-25T09:08:16.722Z,39.87
2019-01-25T09:09:21.390Z,34.97
2019-01-25T09:10:25.970Z,42.47
2019-01-25T09:11:30.459Z,42.60
2019-01-25T09:12:35.067Z,47.63
2019-01-25T09:13:39.621Z,35.73
2019-01-25T09:14:44.425Z,40.20
2019-01-25T09:15:49.075Z,38.37
2019-01-25T09:16:53.683Z,35.03
2019-01-25T09:17:58.790Z,38.67
2019-01-25T09:19:03.719Z,39.23
2019-01-25T09:20:14.420Z,45.63
2019-01-25T09:21:16.711Z,44.13
2019-01-25T09:22:21.354Z,40.97
2019-01-25T09:23:26.031Z,45.60
2019-01-25T09:24:30.457Z,42.40
2019-01-25T09:25:35.264Z,39.63
2019-01-25T09:26:39.838Z,38.80
2019-01-25T09:27:44.705Z,42.60
2019-01-25T09:28:49.468Z,48.13
2019-01-25T09:29:54.130Z,42.30
2019-01-25T09:30:58.919Z,42.80
2019-01-25T09:32:05.199Z,38.73
2019-01-25T09:33:09.753Z,40.73
2019-01-25T09:34:14.774Z,42.00
2019-01-25T09:35:19.727Z,45.67
2019-01-25T09:36:24.215Z,42.60
2019-01-25T09:37:28.810Z,43.07
2019-01-25T09:38:34.232Z,44.97
2019-01-25T09:39:38.679Z,43.80
2019-01-25T09:40:43.182Z,38.03
2019-01-25T09:41:47.743Z,39.67
2019-01-25T09:42:52.756Z,41.77
2019-01-25T09:43:57.390Z,41.13
2019-01-25T09:45:02.099Z,40.27
2019-01-25T09:46:06.876Z,42.57
2019-01-25T09:47:13.030Z,39.17
2019-01-25T09:48:17.834Z,44.37
2019-01-25T09:49:22.616Z,44.27
2019-01-25T09:50:27.185Z,39.17
2019-01-25T09:51:31.617Z,40.27
2019-01-25T09:52:36.390Z,35.53
2019-01-25T09:53:40.969Z,39.67
2019-01-25T09:54:46.185Z,48.07
2019-01-25T09:55:50.814Z,38.80
2019-01-25T09:56:56.747Z,37.50
2019-01-25T09:58:03.576Z,42.47
2019-01-25T09:59:08.085Z,39.80
2019-01-25T10:00:26.205Z,39.13
2019-01-25T10:01:30.852Z,44.97
2019-01-25T10:02:35.307Z,38.83
2019-01-25T10:03:39.704Z,43.33
2019-01-25T10:04:44.272Z,44.37
2019-01-25T10:05:50.635Z,39.40
2019-01-25T10:06:55.355Z,41.20
2019-01-25T10:08:00.026Z,47.60
2019-01-25T10:09:07.268Z,37.77
2019-01-25T10:10:12.358Z,38.27
2019-01-25T10:11:17.083Z,41.73
2019-01-25T10:12:21.627Z,37.73
2019-01-25T10:13:26.319Z,46.63
2019-01-25T10:14:30.768Z,43.10
2019-01-25T10:15:35.888Z,40.03
2019-01-25T10:16:40.570Z,41.27
2019-01-25T10:17:45.540Z,42.10
2019-01-25T10:18:50.088Z,42.70
2019-01-25T10:19:54.709Z,43.70
2019-01-25T10:20:59.356Z,45.50
2019-01-25T10:22:04.364Z,41.20
2019-01-25T10:23:09.364Z,40.47
2019-01-25T10:24:14.306Z,39.27
2019-01-25T10:25:19.106Z,42.70
2019-01-25T10:26:23.569Z,39.70
2019-01-25T10:27:28.186Z,40.23
2019-01-25T10:28:35.781Z,38.23
2019-01-25T10:29:40.666Z,42.27
2019-01-25T10:30:45.769Z,40.93
2019-01-25T10:31:50.567Z,43.00
2019-01-25T10:32:55.245Z,39.17
2019-01-25T10:33:59.678Z,38.80
2019-01-25T10:35:05.294Z,39.33
2019-01-25T10:36:09.829Z,42.23
2019-01-25T10:37:14.443Z,40.80
2019-01-25T10:38:19.116Z,42.57
2019-01-25T10:39:23.532Z,42.67
2019-01-25T10:40:28.045Z,39.90
2019-01-25T10:41:32.652Z,43.43
2019-01-25T10:42:44.101Z,39.20
2019-01-25T10:43:43.274Z,42.67
2019-01-25T10:44:48.542Z,42.20
2019-01-25T10:45:53.158Z,35.73
2019-01-25T10:46:57.754Z,38.30
2019-01-25T10:48:02.779Z,45.67
2019-01-25T10:49:07.209Z,49.57
2019-01-25T10:50:12.161Z,36.33
2019-01-25T10:51:16.624Z,45.17
2019-01-25T10:52:21.401Z,36.60
2019-01-25T10:53:25.968Z,38.80
2019-01-25T10:54:30.523Z,41.20
2019-01-25T10:55:35.719Z,45.47
2019-01-25T10:56:42.019Z,40.83
2019-01-25T10:57:47.152Z,47.07
2019-01-25T10:58:51.699Z,40.53
2019-01-25T10:59:59.066Z,43.00
2019-01-25T11:01:03.900Z,43.00
2019-01-25T11:02:08.366Z,50.00
2019-01-25T11:03:12.979Z,43.07
2019-01-25T11:04:17.704Z,43.80
2019-01-25T11:05:23.310Z,42.30
2019-01-25T11:06:27.739Z,40.03
2019-01-25T11:07:32.164Z,44.53
2019-01-25T11:08:36.629Z,46.30
2019-01-25T11:09:41.180Z,40.43
2019-01-25T11:10:45.647Z,47.23
2019-01-25T11:11:50.126Z,43.70
2019-01-25T11:13:00.738Z,47.07
2019-01-25T11:14:01.332Z,41.73
2019-01-25T11:15:07.736Z,41.40
2019-01-25T11:16:12.366Z,45.63
2019-01-25T11:17:16.970Z,43.60
2019-01-25T11:18:21.472Z,39.03
2019-01-25T11:19:25.976Z,41.97
2019-01-25T11:20:30.403Z,39.13
2019-01-25T11:21:37.532Z,43.73
2019-01-25T11:22:40.992Z,42.10
2019-01-25T11:23:45.538Z,53.83
2019-01-25T11:24:50.167Z,47.17
2019-01-25T11:25:55.358Z,46.83
2019-01-25T11:27:01.466Z,45.73
2019-01-25T11:28:06.303Z,43.33
2019-01-25T11:29:10.995Z,47.03
2019-01-25T11:30:15.799Z,48.33
2019-01-25T11:31:20.319Z,45.80
2019-01-25T11:32:24.968Z,41.80
2019-01-25T11:33:29.515Z,49.07
2019-01-25T11:34:33.979Z,47.57
2019-01-25T11:35:38.558Z,43.60
2019-01-25T11:36:43.174Z,46.33
2019-01-25T11:37:47.621Z,48.37
2019-01-25T11:38:52.241Z,47.97
2019-01-25T11:39:56.735Z,46.17
2019-01-25T11:41:01.365Z,49.37
2019-01-25T11:42:05.784Z,49.80
2019-01-25T11:43:11.523Z,52.40
2019-01-25T11:44:16.311Z,49.57
2019-01-25T11:45:20.812Z,46.63
2019-01-25T11:46:25.269Z,45.47
2019-01-25T11:47:29.842Z,46.87
2019-01-25T11:48:34.407Z,54.07
2019-01-25T11:49:39.013Z,48.03
2019-01-25T11:50:43.730Z,51.37
2019-01-25T11:51:48.336Z,54.77
2019-01-25T11:52:53.002Z,48.10
2019-01-25T11:53:57.422Z,46.07
2019-01-25T11:55:02.021Z,52.40
2019-01-25T11:56:06.444Z,51.47
2019-01-25T11:57:10.974Z,52.13
2019-01-25T11:58:15.711Z,52.93
2019-01-25T11:59:20.198Z,48.97
2019-01-25T12:00:26.424Z,46.20
2019-01-25T12:01:31.132Z,57.50
2019-01-25T12:02:35.513Z,57.30
2019-01-25T12:03:39.965Z,57.13
2019-01-25T12:04:44.645Z,66.83
2019-01-25T12:05:49.210Z,57.63
2019-01-25T12:06:53.703Z,61.83
2019-01-25T12:07:58.246Z,59.50
2019-01-25T12:09:02.850Z,53.83
2019-01-25T12:10:09.327Z,65.43
2019-01-25T12:11:14.187Z,60.43
2019-01-25T12:12:19.448Z,55.47
2019-01-25T12:13:23.882Z,62.10
2019-01-25T12:14:28.349Z,59.47
2019-01-25T12:15:32.995Z,56.77
2019-01-25T12:16:37.648Z,67.60
2019-01-25T12:17:42.219Z,58.37
2019-01-25T12:18:46.773Z,49.97
2019-01-25T12:19:51.178Z,59.47
2019-01-25T12:20:55.754Z,62.37
2019-01-25T12:22:00.260Z,59.40
2019-01-25T12:23:04.795Z,56.33
2019-01-25T12:24:09.342Z,55.83
2019-01-25T12:25:13.994Z,65.70
2019-01-25T12:26:18.544Z,64.80
2019-01-25T12:27:23.052Z,66.97
2019-01-25T12:28:27.504Z,64.30
2019-01-25T12:29:32.164Z,62.70
2019-01-25T12:30:38.451Z,61.30
2019-01-25T12:31:43.081Z,66.10
2019-01-25T12:32:47.616Z,65.70
2019-01-25T12:33:52.058Z,60.40
2019-01-25T12:34:57.536Z,71.53
2019-01-25T12:36:02.396Z,69.60
2019-01-25T12:37:07.250Z,58.20
2019-01-25T12:38:11.907Z,71.03
2019-01-25T12:39:16.509Z,65.57
2019-01-25T12:40:21.027Z,68.13
2019-01-25T12:41:25.516Z,65.20
2019-01-25T12:42:30.029Z,68.27
2019-01-25T12:43:34.468Z,80.97
2019-01-25T12:44:38.931Z,75.07
2019-01-25T12:45:43.750Z,78.77
2019-01-25T12:46:48.240Z,72.33
2019-01-25T12:47:53.128Z,73.23
2019-01-25T12:48:57.757Z,78.47
2019-01-25T12:50:02.364Z,78.40
2019-01-25T12:51:13.008Z,76.47
2019-01-25T12:52:17.410Z,79.40
2019-01-25T12:53:23.384Z,71.27
2019-01-25T12:54:28.295Z,75.37
2019-01-25T12:55:32.981Z,82.43
2019-01-25T12:56:37.660Z,80.47
2019-01-25T12:57:42.339Z,73.20
2019-01-25T12:58:46.842Z,76.60
2019-01-25T12:59:51.418Z,83.00
2019-01-25T13:00:55.944Z,78.37
2019-01-25T13:02:00.574Z,76.23
2019-01-25T13:03:05.944Z,75.57
2019-01-25T13:04:10.383Z,88.77
2019-01-25T13:05:15.904Z,88.87
2019-01-25T13:06:20.342Z,85.17
2019-01-25T13:07:24.813Z,87.30
2019-01-25T13:08:29.423Z,93.73
2019-01-25T13:09:33.967Z,89.57
2019-01-25T13:10:38.554Z,91.90
2019-01-25T13:11:43.350Z,87.40
2019-01-25T13:12:47.944Z,85.77
2019-01-25T13:13:52.381Z,90.47
2019-01-25T13:14:58.515Z,94.40
2019-01-25T13:16:03.129Z,84.70
2019-01-25T13:17:07.876Z,93.90
2019-01-25T13:18:12.634Z,84.90
2019-01-25T13:19:17.019Z,89.87
2019-01-25T13:20:23.206Z,97.67
2019-01-25T13:21:27.878Z,84.17
2019-01-25T13:22:32.665Z,95.10
2019-01-25T13:23:37.142Z,95.60
2019-01-25T13:24:41.662Z,92.43
2019-01-25T13:25:47.364Z,92.77
2019-01-25T13:26:51.802Z,86.47
2019-01-25T13:27:56.493Z,107.80
2019-01-25T13:29:01.312Z,82.60
2019-01-25T13:30:09.002Z,101.90
2019-01-25T13:31:13.716Z,86.17
2019-01-25T13:32:18.300Z,99.03
2019-01-25T13:33:22.946Z,104.33
2019-01-25T13:34:27.549Z,110.30
2019-01-25T13:35:32.077Z,103.97
2019-01-25T13:36:36.656Z,96.33
2019-01-25T13:37:41.266Z,88.93
2019-01-25T13:38:45.712Z,106.90
2019-01-25T13:39:50.132Z,105.93
2019-01-25T13:40:54.720Z,102.03
2019-01-25T13:41:59.325Z,95.43
2019-01-25T13:43:03.880Z,108.03
2019-01-25T13:44:08.341Z,109.53
2019-01-25T13:45:14.365Z,95.37
2019-01-25T13:46:18.799Z,107.57
2019-01-25T13:47:24.473Z,106.77
2019-01-25T13:48:29.202Z,111.70
2019-01-25T13:49:33.813Z,109.60
2019-01-25T13:50:38.259Z,100.37
2019-01-25T13:51:42.819Z,100.17
2019-01-25T13:52:47.505Z,97.87
2019-01-25T13:53:52.000Z,97.17
2019-01-25T13:54:56.506Z,111.03
2019-01-25T13:56:00.889Z,107.93
2019-01-25T13:57:05.602Z,113.37